createdAt,value
2022-08-08T00:00:53.209Z,1.38
2022-08-08T00:03:01.621Z,1.60
2022-08-08T00:06:15.981Z,1.48
2022-08-08T00:09:27.623Z,1.83
2022-08-08T00:12:13.667Z,1.60
2022-08-08T00:15:05.277Z,1.67
2022-08-08T00:17:58.570Z,1.30
2022-08-08T00:20:42.344Z,1.83
2022-08-08T00:23:28.501Z,1.85
2022-08-08T00:26:26.235Z,1.20
2022-08-08T00:29:10.064Z,1.70
2022-08-08T00:32:19.949Z,2.15
2022-08-08T00:35:16.696Z,1.63
2022-08-08T00:38:02.470Z,1.35
2022-08-08T00:41:11.652Z,1.25
2022-08-08T00:43:55.966Z,1.42
2022-08-08T00:46:57.189Z,1.27
2022-08-08T00:49:33.231Z,1.20
2022-08-08T00:52:30.256Z,1.23
2022-08-08T00:55:17.524Z,1.45
2022-08-08T00:58:36.479Z,1.30
2022-08-08T01:01:37.706Z,1.15
2022-08-08T01:04:50.690Z,1.27
2022-08-08T01:07:55.652Z,1.23
2022-08-08T01:10:50.991Z,1.00
2022-08-08T01:13:43.311Z,1.08
2022-08-08T01:16:39.103Z,1.45
2022-08-08T01:19:52.266Z,1.38
2022-08-08T01:22:45.405Z,1.10
2022-08-08T01:25:49.208Z,1.20
2022-08-08T01:28:47.687Z,1.40
2022-08-08T01:32:13.588Z,1.25
2022-08-08T01:35:29.628Z,1.65
2022-08-08T01:38:13.036Z,1.27
2022-08-08T01:41:11.687Z,1.20
2022-08-08T01:43:54.455Z,1.10
2022-08-08T01:46:52.112Z,1.13
2022-08-08T01:49:53.985Z,1.40
2022-08-08T01:55:17.848Z,1.30
2022-08-08T01:56:29.442Z,1.20
2022-08-08T01:59:08.988Z,1.15
2022-08-08T02:01:59.694Z,1.40
2022-08-08T02:04:59.234Z,1.05
2022-08-08T02:08:06.983Z,1.00
2022-08-08T02:10:55.150Z,1.05
2022-08-08T02:13:54.623Z,1.20
2022-08-08T02:16:29.315Z,0.90
2022-08-08T02:19:41.527Z,1.13
2022-08-08T02:22:34.232Z,0.90
2022-08-08T02:25:46.781Z,1.17
2022-08-08T02:28:43.122Z,1.00
2022-08-08T02:31:58.113Z,1.00
2022-08-08T02:35:07.661Z,1.02
2022-08-08T02:37:56.706Z,0.98
2022-08-08T02:40:54.759Z,1.05
2022-08-08T02:44:42.817Z,1.17
2022-08-08T02:47:32.833Z,1.17
2022-08-08T02:50:52.888Z,1.35
2022-08-08T02:53:56.803Z,1.48
2022-08-08T02:57:02.702Z,1.35
2022-08-08T03:00:26.660Z,1.42
2022-08-08T03:03:46.302Z,1.23
2022-08-08T03:06:44.717Z,1.30
2022-08-08T03:09:41.332Z,1.35
2022-08-08T03:12:35.878Z,1.40
2022-08-08T03:16:00.907Z,1.00
2022-08-08T03:18:30.984Z,1.23
2022-08-08T03:21:01.780Z,1.38
2022-08-08T03:23:54.746Z,1.30
2022-08-08T03:26:42.116Z,1.30
2022-08-08T03:29:27.119Z,0.93
2022-08-08T03:32:29.242Z,1.30
2022-08-08T03:34:59.304Z,1.05
2022-08-08T03:37:59.386Z,1.23
2022-08-08T03:40:29.417Z,1.20
2022-08-08T03:43:16.770Z,0.98
2022-08-08T03:46:07.064Z,1.20
2022-08-08T03:49:09.940Z,1.40
2022-08-08T03:51:47.086Z,1.20
2022-08-08T03:54:40.711Z,0.93
2022-08-08T03:58:35.256Z,1.00
2022-08-08T04:00:18.222Z,1.50
2022-08-08T04:03:11.804Z,1.08
2022-08-08T04:05:48.134Z,1.13
2022-08-08T04:08:33.798Z,1.10
2022-08-08T04:11:17.478Z,1.20
2022-08-08T04:14:03.153Z,1.05
2022-08-08T04:16:40.928Z,1.10
2022-08-08T04:19:24.949Z,1.08
2022-08-08T04:21:59.338Z,1.08
2022-08-08T04:24:32.922Z,1.45
2022-08-08T04:27:05.147Z,1.08
2022-08-08T04:29:38.925Z,1.20
2022-08-08T04:32:30.317Z,1.13
2022-08-08T04:34:59.823Z,1.10
2022-08-08T04:37:34.391Z,1.00
2022-08-08T04:40:13.045Z,0.90
2022-08-08T04:42:56.679Z,1.17
2022-08-08T04:45:51.797Z,1.10
2022-08-08T04:48:21.771Z,1.35
2022-08-08T04:50:50.504Z,1.00
2022-08-08T04:54:27.412Z,1.00
2022-08-08T04:56:13.547Z,1.17
2022-08-08T04:58:41.773Z,0.98
2022-08-08T05:01:11.507Z,1.10
2022-08-08T05:04:10.001Z,1.20
2022-08-08T05:06:36.414Z,1.10
2022-08-08T05:09:08.178Z,1.15
2022-08-08T05:11:40.583Z,1.05
2022-08-08T05:14:14.148Z,1.30
2022-08-08T05:16:52.551Z,1.08
2022-08-08T05:20:10.795Z,1.33
2022-08-08T05:22:19.008Z,1.23
2022-08-08T05:24:50.270Z,1.20
2022-08-08T05:27:22.013Z,1.10
2022-08-08T05:29:53.391Z,0.90
2022-08-08T05:32:27.727Z,0.90
2022-08-08T05:37:51.910Z,1.00
2022-08-08T05:40:28.157Z,1.13
2022-08-08T05:43:38.432Z,1.00
2022-08-08T05:46:03.983Z,1.00
2022-08-08T05:48:38.863Z,1.15
2022-08-08T05:51:15.704Z,1.02
2022-08-08T05:54:24.857Z,1.08
2022-08-08T05:56:47.609Z,0.85
2022-08-08T05:59:59.683Z,0.90
2022-08-08T06:02:47.935Z,1.00
2022-08-08T06:05:32.910Z,0.80
2022-08-08T06:08:09.566Z,1.00
2022-08-08T06:10:50.678Z,0.82
2022-08-08T06:13:22.810Z,0.90
2022-08-08T06:15:55.625Z,1.20
2022-08-08T06:18:30.469Z,0.98
2022-08-08T06:21:03.696Z,1.17
2022-08-08T06:23:52.854Z,1.13
2022-08-08T06:26:44.461Z,1.27
2022-08-08T06:29:48.653Z,1.30
2022-08-08T06:32:15.021Z,1.30
2022-08-08T06:34:56.443Z,1.52
2022-08-08T06:37:46.573Z,1.95
2022-08-08T06:40:20.978Z,1.20
2022-08-08T06:42:56.196Z,1.70
2022-08-08T06:45:34.020Z,1.60
2022-08-08T06:48:04.197Z,1.50
2022-08-08T06:50:38.513Z,1.23
2022-08-08T06:53:17.154Z,1.55
2022-08-08T06:56:02.071Z,1.02
2022-08-08T06:58:33.497Z,1.27
2022-08-08T07:02:11.690Z,1.60
2022-08-08T07:04:37.098Z,1.30
2022-08-08T07:07:10.694Z,1.40
2022-08-08T07:09:59.427Z,1.77
2022-08-08T07:12:47.570Z,1.73
2022-08-08T07:16:05.400Z,2.13
2022-08-08T07:19:06.653Z,1.80
2022-08-08T07:22:12.156Z,1.40
2022-08-08T07:25:01.928Z,1.80
2022-08-08T07:28:00.685Z,1.77
2022-08-08T07:30:32.980Z,1.55
2022-08-08T07:33:02.599Z,1.83
2022-08-08T07:35:35.584Z,1.52
2022-08-08T07:38:18.355Z,1.65
2022-08-08T07:41:04.468Z,2.10
2022-08-08T07:43:37.008Z,2.85
2022-08-08T07:46:23.175Z,1.80
2022-08-08T07:48:56.109Z,2.40
2022-08-08T07:51:44.931Z,1.80
2022-08-08T07:54:33.777Z,2.45
2022-08-08T07:57:27.778Z,2.25
2022-08-08T08:00:15.783Z,2.78
2022-08-08T08:03:20.511Z,2.78
2022-08-08T08:05:54.808Z,2.70
2022-08-08T08:08:41.824Z,2.75
2022-08-08T08:11:23.647Z,2.70
2022-08-08T08:14:09.871Z,2.70
2022-08-08T08:16:50.484Z,2.88
2022-08-08T08:22:01.081Z,3.10
2022-08-08T08:24:43.077Z,2.75
2022-08-08T08:27:14.987Z,2.73
2022-08-08T08:29:51.057Z,2.38
2022-08-08T08:32:32.058Z,2.20
2022-08-08T08:37:59.424Z,2.67
2022-08-08T08:40:27.101Z,2.45
2022-08-08T08:42:57.638Z,2.47
2022-08-08T08:45:29.259Z,1.80
2022-08-08T08:48:01.886Z,1.98
2022-08-08T08:50:36.885Z,2.45
2022-08-08T08:53:27.190Z,2.33
2022-08-08T08:56:09.112Z,2.03
2022-08-08T08:58:46.863Z,2.10
2022-08-08T09:01:43.823Z,1.75
2022-08-08T09:04:31.626Z,1.80
2022-08-08T09:07:20.191Z,2.40
2022-08-08T09:09:57.273Z,2.00
2022-08-08T09:12:40.514Z,2.10
2022-08-08T09:15:14.943Z,2.55
2022-08-08T09:18:26.596Z,2.03
2022-08-08T09:21:56.138Z,2.30
2022-08-08T09:24:00.766Z,1.58
2022-08-08T09:26:40.827Z,1.90
2022-08-08T09:29:24.556Z,2.13
2022-08-08T09:32:04.478Z,2.25
2022-08-08T09:34:50.513Z,2.25
2022-08-08T09:37:58.053Z,1.90
2022-08-08T09:40:18.794Z,1.40
2022-08-08T09:42:52.094Z,1.95
2022-08-08T09:45:54.596Z,2.05
2022-08-08T09:48:36.496Z,1.80
2022-08-08T09:51:13.267Z,1.35
2022-08-08T09:53:56.490Z,1.60
2022-08-08T09:56:40.086Z,1.98
2022-08-08T09:59:42.738Z,1.80
2022-08-08T10:02:12.865Z,1.92
2022-08-08T10:04:47.844Z,1.83
2022-08-08T10:07:17.570Z,1.20
2022-08-08T10:09:58.875Z,1.50
2022-08-08T10:12:53.652Z,1.47
2022-08-08T10:15:29.462Z,1.27
2022-08-08T10:18:11.717Z,1.20
2022-08-08T10:20:58.113Z,1.42
2022-08-08T10:23:58.315Z,1.80
2022-08-08T10:26:56.895Z,1.67
2022-08-08T10:30:01.624Z,1.55
2022-08-08T10:32:34.393Z,1.20
2022-08-08T10:35:11.519Z,1.20
2022-08-08T10:37:59.851Z,1.20
2022-08-08T10:40:32.234Z,1.20
2022-08-08T10:43:05.991Z,1.20
2022-08-08T10:45:56.619Z,1.10
2022-08-08T10:48:57.496Z,1.10
2022-08-08T10:51:26.560Z,1.10
2022-08-08T10:54:02.031Z,1.10
2022-08-08T10:56:35.468Z,1.92
2022-08-08T10:59:14.046Z,4.35
2022-08-08T11:01:49.556Z,5.80
2022-08-08T11:04:39.018Z,5.00
2022-08-08T11:07:39.158Z,4.47
2022-08-08T11:10:01.165Z,5.38
2022-08-08T11:12:38.321Z,4.85
2022-08-08T11:15:07.914Z,5.05
2022-08-08T11:18:00.999Z,3.55
2022-08-08T11:20:28.432Z,2.65
2022-08-08T11:23:05.687Z,2.53
2022-08-08T11:25:52.149Z,2.90
2022-08-08T11:28:29.440Z,2.30
2022-08-08T11:31:03.870Z,2.08
2022-08-08T11:33:51.403Z,2.17
2022-08-08T11:36:22.358Z,1.75
2022-08-08T11:38:54.878Z,1.48
2022-08-08T11:41:32.553Z,1.67
2022-08-08T11:44:02.472Z,1.67
2022-08-08T11:46:34.946Z,1.50
2022-08-08T11:49:05.302Z,1.52
2022-08-08T11:51:40.193Z,1.65
2022-08-08T11:54:32.476Z,1.83
2022-08-08T11:57:35.159Z,1.38
2022-08-08T12:00:07.616Z,1.67
2022-08-08T12:02:58.632Z,1.60
2022-08-08T12:05:34.037Z,1.65
2022-08-08T12:08:02.241Z,1.98
2022-08-08T12:10:33.858Z,1.40
2022-08-08T12:13:10.702Z,1.67
2022-08-08T12:15:46.784Z,1.75
2022-08-08T12:18:25.017Z,1.92
2022-08-08T12:20:55.308Z,1.48
2022-08-08T12:23:43.635Z,1.70
2022-08-08T12:26:27.510Z,1.20
2022-08-08T12:29:17.390Z,1.40
2022-08-08T12:31:53.486Z,1.48
2022-08-08T12:34:36.456Z,1.67
2022-08-08T12:37:14.823Z,1.50
2022-08-08T12:40:02.081Z,1.60
2022-08-08T12:42:33.957Z,1.40
2022-08-08T12:45:53.945Z,1.15
2022-08-08T12:48:18.273Z,1.60
2022-08-08T12:50:58.256Z,1.25
2022-08-08T12:53:37.713Z,1.13
2022-08-08T12:56:19.869Z,1.83
2022-08-08T12:58:54.052Z,1.50
2022-08-08T13:01:42.954Z,1.20
2022-08-08T13:04:18.745Z,1.23
2022-08-08T13:07:00.579Z,1.10
2022-08-08T13:09:43.286Z,1.55
2022-08-08T13:12:34.250Z,1.30
2022-08-08T13:15:06.412Z,1.35
2022-08-08T13:18:01.449Z,1.65
2022-08-08T13:20:26.039Z,1.42
2022-08-08T13:23:29.868Z,1.50
2022-08-08T13:25:50.362Z,1.50
2022-08-08T13:28:31.938Z,1.65
2022-08-08T13:31:06.074Z,1.55
2022-08-08T13:33:42.274Z,1.50
2022-08-08T13:36:11.293Z,1.67
2022-08-08T13:38:40.895Z,1.60
2022-08-08T13:41:16.085Z,1.10
2022-08-08T13:43:49.824Z,1.40
2022-08-08T13:46:27.098Z,1.40
2022-08-08T13:50:33.972Z,1.65
2022-08-08T13:52:06.010Z,1.20
2022-08-08T13:54:44.266Z,1.88
2022-08-08T13:57:14.705Z,1.20
2022-08-08T13:59:49.574Z,1.23
2022-08-08T14:02:32.884Z,1.55
2022-08-08T14:05:04.972Z,1.10
2022-08-08T14:07:42.305Z,1.35
2022-08-08T14:10:17.396Z,1.48
2022-08-08T14:13:00.511Z,0.90
2022-08-08T14:15:39.762Z,1.23
2022-08-08T14:18:36.841Z,1.33
2022-08-08T14:21:12.904Z,1.40
2022-08-08T14:24:03.987Z,1.40
2022-08-08T14:26:33.589Z,1.35
2022-08-08T14:29:06.128Z,1.10
2022-08-08T14:32:10.033Z,0.90
2022-08-08T14:34:42.484Z,1.30
2022-08-08T14:37:13.291Z,1.30
2022-08-08T14:40:06.628Z,1.33
2022-08-08T14:42:54.519Z,1.00
2022-08-08T14:45:33.316Z,1.20
2022-08-08T14:48:17.600Z,1.33
2022-08-08T14:51:06.767Z,1.25
2022-08-08T14:53:54.999Z,1.20
2022-08-08T14:56:25.936Z,1.30
2022-08-08T14:58:55.059Z,1.05
2022-08-08T15:01:37.561Z,1.60
2022-08-08T15:06:39.052Z,0.95
2022-08-08T15:09:10.320Z,1.38
2022-08-08T15:11:43.376Z,1.15
2022-08-08T15:14:15.487Z,1.40
2022-08-08T15:16:44.304Z,1.10
2022-08-08T15:19:14.934Z,1.50
2022-08-08T15:21:44.895Z,1.52
2022-08-08T15:24:16.014Z,1.40
2022-08-08T15:26:52.522Z,1.52
2022-08-08T15:29:24.174Z,1.42
2022-08-08T15:32:03.903Z,1.55
2022-08-08T15:34:44.758Z,1.33
2022-08-08T15:37:13.253Z,1.17
2022-08-08T15:39:41.425Z,1.58
2022-08-08T15:42:17.722Z,1.70
2022-08-08T15:44:58.539Z,1.52
2022-08-08T15:47:26.577Z,1.33
2022-08-08T15:49:54.902Z,1.85
2022-08-08T15:52:27.749Z,1.80
2022-08-08T15:54:55.572Z,1.42
2022-08-08T15:57:26.290Z,1.55
2022-08-08T16:00:25.446Z,1.50
2022-08-08T16:02:43.897Z,1.38
2022-08-08T16:05:20.004Z,1.23
2022-08-08T16:07:52.668Z,1.40
2022-08-08T16:13:09.625Z,1.63
2022-08-08T16:13:43.771Z,1.40
2022-08-08T16:16:09.457Z,1.52
2022-08-08T16:21:29.175Z,1.48
2022-08-08T16:23:58.339Z,1.40
2022-08-08T16:26:32.794Z,1.52
2022-08-08T16:29:07.945Z,1.40
2022-08-08T16:31:37.702Z,1.40
2022-08-08T16:34:06.169Z,1.65
2022-08-08T16:36:34.438Z,1.63
2022-08-08T16:39:09.786Z,1.30
2022-08-08T16:41:51.134Z,1.65
2022-08-08T16:44:28.168Z,1.65
2022-08-08T16:47:21.625Z,1.38
2022-08-08T16:49:50.070Z,1.63
2022-08-08T16:55:01.635Z,1.13
2022-08-08T16:55:25.042Z,1.35
2022-08-08T16:58:15.873Z,1.30
2022-08-08T17:00:45.383Z,1.50
2022-08-08T17:03:18.149Z,1.33
2022-08-08T17:05:53.916Z,1.27
2022-08-08T17:08:23.671Z,1.60
2022-08-08T17:10:57.608Z,1.52
2022-08-08T17:13:41.441Z,1.50
2022-08-08T17:16:16.368Z,1.40
2022-08-08T17:18:45.692Z,1.98
2022-08-08T17:21:13.928Z,1.42
2022-08-08T17:24:01.654Z,1.50
2022-08-08T17:26:31.497Z,1.98
2022-08-08T17:29:04.229Z,1.67
2022-08-08T17:31:44.643Z,1.13
2022-08-08T17:34:48.865Z,1.55
2022-08-08T17:37:09.288Z,1.70
2022-08-08T17:40:04.162Z,1.35
2022-08-08T17:42:29.149Z,1.30
2022-08-08T17:44:58.589Z,1.70
2022-08-08T17:47:40.480Z,1.20
2022-08-08T17:50:09.567Z,1.30
2022-08-08T17:52:38.476Z,1.63
2022-08-08T17:56:05.149Z,1.70
2022-08-08T17:58:00.142Z,1.48
2022-08-08T18:00:31.089Z,1.60
2022-08-08T18:03:07.782Z,1.50
2022-08-08T18:05:49.410Z,1.50
2022-08-08T18:08:25.169Z,1.48
2022-08-08T18:11:16.162Z,1.90
2022-08-08T18:13:46.054Z,2.00
2022-08-08T18:16:20.644Z,1.40
2022-08-08T18:18:55.934Z,1.80
2022-08-08T18:22:00.262Z,1.95
2022-08-08T18:24:21.398Z,1.83
2022-08-08T18:26:53.986Z,2.20
2022-08-08T18:29:29.734Z,2.22
2022-08-08T18:34:28.096Z,2.05
2022-08-08T18:36:56.709Z,2.10
2022-08-08T18:39:28.716Z,2.03
2022-08-08T18:42:03.570Z,2.45
2022-08-08T18:44:34.713Z,2.30
2022-08-08T18:47:04.389Z,2.10
2022-08-08T18:49:57.262Z,2.38
2022-08-08T18:52:23.313Z,2.40
2022-08-08T18:55:00.558Z,2.63
2022-08-08T18:57:44.666Z,2.45
2022-08-08T19:00:20.278Z,2.33
2022-08-08T19:02:56.616Z,2.40
2022-08-08T19:05:38.554Z,2.70
2022-08-08T19:08:24.944Z,2.35
2022-08-08T19:10:58.589Z,2.42
2022-08-08T19:13:47.283Z,2.10
2022-08-08T19:16:18.563Z,2.42
2022-08-08T19:18:53.367Z,2.72
2022-08-08T19:21:32.883Z,2.28
2022-08-08T19:24:05.435Z,2.20
2022-08-08T19:26:35.671Z,2.45
2022-08-08T19:29:06.083Z,2.85
2022-08-08T19:31:35.286Z,2.70
2022-08-08T19:34:36.407Z,2.40
2022-08-08T19:36:58.451Z,2.53
2022-08-08T19:39:35.163Z,2.67
2022-08-08T19:42:07.241Z,2.53
2022-08-08T19:44:46.443Z,2.35
2022-08-08T19:47:24.468Z,13.73
2022-08-08T19:49:59.890Z,7.07
2022-08-08T19:52:34.838Z,10.80
2022-08-08T19:55:12.677Z,5.68
2022-08-08T19:57:42.361Z,4.93
2022-08-08T20:00:30.595Z,3.72
2022-08-08T20:03:01.266Z,3.22
2022-08-08T20:06:14.118Z,3.55
2022-08-08T20:08:29.591Z,3.60
2022-08-08T20:11:00.555Z,3.20
2022-08-08T20:14:11.968Z,3.35
2022-08-08T20:16:18.392Z,3.20
2022-08-08T20:18:52.927Z,2.65
2022-08-08T20:21:25.916Z,3.03
2022-08-08T20:23:58.340Z,2.50
2022-08-08T20:26:33.657Z,3.03
2022-08-08T20:29:04.047Z,3.08
2022-08-08T20:31:47.001Z,3.60
2022-08-08T20:34:30.281Z,2.70
2022-08-08T20:37:04.064Z,3.05
2022-08-08T20:39:41.285Z,3.10
2022-08-08T20:42:28.291Z,3.15
2022-08-08T20:44:58.830Z,3.35
2022-08-08T20:47:36.215Z,2.95
2022-08-08T20:50:10.813Z,2.22
2022-08-08T20:52:39.230Z,3.28
2022-08-08T20:55:07.690Z,2.75
2022-08-08T20:57:51.271Z,2.50
2022-08-08T21:00:19.592Z,4.05
2022-08-08T21:02:52.548Z,2.53
2022-08-08T21:05:21.491Z,2.83
2022-08-08T21:08:34.377Z,2.80
2022-08-08T21:10:41.066Z,2.85
2022-08-08T21:13:09.166Z,2.40
2022-08-08T21:16:05.204Z,2.78
2022-08-08T21:18:27.922Z,2.60
2022-08-08T21:20:56.628Z,2.60
2022-08-08T21:23:58.524Z,2.80
2022-08-08T21:26:13.278Z,2.95
2022-08-08T21:28:55.854Z,2.63
2022-08-08T21:31:58.336Z,2.25
2022-08-08T21:34:18.575Z,2.45
2022-08-08T21:36:54.549Z,3.28
2022-08-08T21:39:41.428Z,2.70
2022-08-08T21:42:14.407Z,3.17
2022-08-08T21:44:59.064Z,2.85
2022-08-08T21:48:05.917Z,2.92
2022-08-08T21:50:18.292Z,2.22
2022-08-08T21:54:31.742Z,2.42
2022-08-08T21:56:20.019Z,2.58
2022-08-08T21:58:24.819Z,2.80
2022-08-08T22:01:00.433Z,2.88
2022-08-08T22:03:32.727Z,2.45
2022-08-08T22:06:02.264Z,2.63
2022-08-08T22:08:37.234Z,2.63
2022-08-08T22:11:58.759Z,2.33
2022-08-08T22:13:59.145Z,2.88
2022-08-08T22:16:28.121Z,2.13
2022-08-08T22:18:56.480Z,2.75
2022-08-08T22:21:24.544Z,2.45
2022-08-08T22:24:05.771Z,2.95
2022-08-08T22:26:34.842Z,2.95
2022-08-08T22:30:01.001Z,2.42
2022-08-08T22:32:10.943Z,2.88
2022-08-08T22:34:40.109Z,2.25
2022-08-08T22:37:15.065Z,2.53
2022-08-08T22:40:00.992Z,2.10
2022-08-08T22:42:34.802Z,2.47
2022-08-08T22:45:12.770Z,2.28
2022-08-08T22:47:49.493Z,2.17
2022-08-08T22:50:25.969Z,2.20
2022-08-08T22:54:28.321Z,2.30
2022-08-08T22:55:58.628Z,2.33
2022-08-08T22:58:30.900Z,2.80
2022-08-08T23:01:00.029Z,2.10
2022-08-08T23:03:52.670Z,2.33
2022-08-08T23:06:18.026Z,2.97
2022-08-08T23:08:55.964Z,1.88
2022-08-08T23:11:30.824Z,2.03
2022-08-08T23:14:21.287Z,3.33
2022-08-08T23:16:54.904Z,2.40
2022-08-08T23:19:31.108Z,2.42
2022-08-08T23:22:05.192Z,2.50
2022-08-08T23:24:41.181Z,2.35
2022-08-08T23:27:11.237Z,2.22
2022-08-08T23:29:59.421Z,2.03
2022-08-08T23:32:27.421Z,2.30
2022-08-08T23:34:59.186Z,2.47
2022-08-08T23:37:54.277Z,2.08
2022-08-08T23:40:16.846Z,2.30
2022-08-08T23:42:50.303Z,2.05
2022-08-08T23:49:00.922Z,1.98
2022-08-08T23:49:02.100Z,2.30
2022-08-08T23:50:57.281Z,1.60
2022-08-08T23:54:05.685Z,2.30
2022-08-08T23:56:13.532Z,2.00
2022-08-08T23:58:51.766Z,2.45
